createdAt,value
2019-02-20T00:01:58.900Z,99667.53
2019-02-20T00:04:34.273Z,99662.01
2019-02-20T00:07:08.766Z,99661.34
2019-02-20T00:09:44.103Z,99663.91
2019-02-20T00:12:19.086Z,99665.55
2019-02-20T00:14:54.119Z,99663.46
2019-02-20T00:17:27.470Z,99676.31
2019-02-20T00:20:01.572Z,99675.27
2019-02-20T00:22:40.174Z,99681.91
2019-02-20T00:25:10.428Z,99685.61
2019-02-20T00:27:44.646Z,99684.68
2019-02-20T00:30:19.249Z,99683.99
2019-02-20T00:32:52.689Z,99687.87
2019-02-20T00:35:27.645Z,99684.91
2019-02-20T00:38:03.038Z,99692.42
2019-02-20T00:40:38.011Z,99692.58
2019-02-20T00:43:11.894Z,99698.13
2019-02-20T00:46:14.268Z,99693.74
2019-02-20T00:49:16.289Z,99686.48
2019-02-20T00:52:07.707Z,99694.53
2019-02-20T00:54:42.228Z,99693.74
2019-02-20T00:57:16.444Z,99688.76
2019-02-20T00:59:49.797Z,99690.77
2019-02-20T01:02:25.044Z,99696.02
2019-02-20T01:04:58.881Z,99688.97
2019-02-20T01:07:33.521Z,99690.02
2019-02-20T01:10:07.874Z,99689.02
2019-02-20T01:12:41.612Z,99679.73
2019-02-20T01:15:15.598Z,99679.95
2019-02-20T01:17:50.046Z,99682.63
2019-02-20T01:20:24.486Z,99683.35
2019-02-20T01:23:00.147Z,99677.07
2019-02-20T01:25:36.187Z,99687.06
2019-02-20T01:28:10.954Z,99677.42
2019-02-20T01:30:45.300Z,99685.22
2019-02-20T01:33:21.335Z,99681.73
2019-02-20T01:35:56.254Z,99677.84
2019-02-20T01:38:30.097Z,99677.28
2019-02-20T01:41:04.967Z,99683.94
2019-02-20T01:43:40.357Z,99683.84
2019-02-20T01:46:16.916Z,99679.34
2019-02-20T01:48:51.384Z,99687.09
2019-02-20T01:51:27.371Z,99677.62
2019-02-20T01:54:02.584Z,99677.44
2019-02-20T01:56:39.611Z,99672.22
2019-02-20T01:59:14.735Z,99682.25
2019-02-20T02:01:49.741Z,99680.67
2019-02-20T02:04:23.840Z,99674.60
2019-02-20T02:06:59.333Z,99674.03
2019-02-20T02:09:33.668Z,99670.15
2019-02-20T02:12:08.063Z,99671.82
2019-02-20T02:14:41.923Z,99678.80
2019-02-20T02:17:15.847Z,99676.12
2019-02-20T02:19:50.174Z,99678.27
2019-02-20T02:22:24.427Z,99685.33
2019-02-20T02:24:58.670Z,99688.09
2019-02-20T02:27:33.752Z,99691.62
2019-02-20T02:30:08.508Z,99693.15
2019-02-20T02:32:43.142Z,99692.11
2019-02-20T02:35:18.066Z,99693.11
2019-02-20T02:37:52.895Z,99695.82
2019-02-20T02:40:27.262Z,99696.59
2019-02-20T02:43:03.642Z,99695.33
2019-02-20T02:45:38.474Z,99698.39
2019-02-20T02:48:12.794Z,99698.72
2019-02-20T02:50:48.237Z,99697.19
2019-02-20T02:53:30.752Z,99702.23
2019-02-20T02:56:01.291Z,99709.48
2019-02-20T02:58:36.431Z,99716.48
2019-02-20T03:01:11.470Z,99715.81
2019-02-20T03:03:46.824Z,99718.43
2019-02-20T03:06:21.615Z,99716.00
2019-02-20T03:08:56.475Z,99719.27
2019-02-20T03:11:30.644Z,99710.52
2019-02-20T03:14:04.719Z,99713.67
2019-02-20T03:16:40.048Z,99721.76
2019-02-20T03:19:15.273Z,99722.66
2019-02-20T03:21:50.189Z,99723.03
2019-02-20T03:24:25.945Z,99726.19
2019-02-20T03:27:00.760Z,99725.91
2019-02-20T03:29:35.678Z,99726.86
2019-02-20T03:32:10.827Z,99727.06
2019-02-20T03:34:45.601Z,99721.86
2019-02-20T03:37:20.161Z,99720.47
2019-02-20T03:39:54.476Z,99726.41
2019-02-20T03:42:28.870Z,99724.51
2019-02-20T03:45:03.973Z,99727.62
2019-02-20T03:47:38.984Z,99728.37
2019-02-20T03:50:13.126Z,99727.45
2019-02-20T03:52:47.418Z,99722.84
2019-02-20T03:55:22.278Z,99728.87
2019-02-20T03:57:56.692Z,99728.48
2019-02-20T04:00:34.656Z,99731.57
2019-02-20T04:03:09.882Z,99723.92
2019-02-20T04:05:44.161Z,99718.63
2019-02-20T04:08:18.703Z,99724.83
2019-02-20T04:10:53.123Z,99723.44
2019-02-20T04:13:27.505Z,99724.24
2019-02-20T04:16:03.074Z,99729.00
2019-02-20T04:18:36.890Z,99729.20
2019-02-20T04:21:11.760Z,99726.07
2019-02-20T04:23:46.312Z,99726.14
2019-02-20T04:26:21.675Z,99729.37
2019-02-20T04:28:55.918Z,99740.88
2019-02-20T04:31:30.279Z,99732.19
2019-02-20T04:34:04.931Z,99742.84
2019-02-20T04:36:39.421Z,99738.64
2019-02-20T04:39:15.009Z,99738.50
2019-02-20T04:41:50.425Z,99731.68
2019-02-20T04:44:25.303Z,99731.44
2019-02-20T04:47:00.640Z,99733.70
2019-02-20T04:49:35.965Z,99732.86
2019-02-20T04:52:10.991Z,99731.47
2019-02-20T04:54:46.473Z,99733.80
2019-02-20T04:57:20.812Z,99738.89
2019-02-20T04:59:55.832Z,99733.84
2019-02-20T05:02:30.861Z,99738.19
2019-02-20T05:05:05.833Z,99739.31
2019-02-20T05:07:41.089Z,99744.31
2019-02-20T05:10:15.862Z,99744.59
2019-02-20T05:12:51.001Z,99744.14
2019-02-20T05:15:25.289Z,99745.77
2019-02-20T05:18:00.239Z,99747.81
2019-02-20T05:20:36.019Z,99747.08
2019-02-20T05:23:11.554Z,99754.98
2019-02-20T05:25:46.309Z,99762.42
2019-02-20T05:28:21.407Z,99766.72
2019-02-20T05:30:56.447Z,99763.16
2019-02-20T05:33:30.194Z,99768.76
2019-02-20T05:36:05.069Z,99774.25
2019-02-20T05:38:39.726Z,99768.66
2019-02-20T05:41:14.264Z,99773.13
2019-02-20T05:43:48.765Z,99778.96
2019-02-20T05:46:24.166Z,99787.88
2019-02-20T05:48:58.401Z,99793.04
2019-02-20T05:51:32.700Z,99799.97
2019-02-20T05:54:09.221Z,99797.14
2019-02-20T05:56:48.115Z,99796.45
2019-02-20T05:59:23.270Z,99799.41
2019-02-20T06:02:00.649Z,99802.84
2019-02-20T06:04:41.825Z,99805.14
2019-02-20T06:07:26.076Z,99810.50
2019-02-20T06:09:56.854Z,99813.70
2019-02-20T06:12:34.011Z,99813.70
2019-02-20T06:15:13.242Z,99814.42
2019-02-20T06:17:48.720Z,99832.19
2019-02-20T06:20:23.738Z,99822.43
2019-02-20T06:22:57.620Z,99830.46
2019-02-20T06:25:31.904Z,99837.28
2019-02-20T06:28:07.500Z,99841.23
2019-02-20T06:30:44.202Z,99839.60
2019-02-20T06:33:20.366Z,99845.20
2019-02-20T06:35:55.543Z,99842.64
2019-02-20T06:38:30.695Z,99847.09
2019-02-20T06:41:04.893Z,99839.60
2019-02-20T06:43:39.576Z,99853.75
2019-02-20T06:46:15.024Z,99848.20
2019-02-20T06:48:52.286Z,99853.17
2019-02-20T06:51:28.450Z,99853.30
2019-02-20T06:54:04.819Z,99858.59
2019-02-20T06:56:40.408Z,99860.05
2019-02-20T06:59:16.033Z,99855.25
2019-02-20T07:01:52.186Z,99855.56
2019-02-20T07:04:28.023Z,99857.94
2019-02-20T07:07:44.936Z,99856.75
2019-02-20T07:11:24.038Z,99851.77
2019-02-20T07:15:07.522Z,99854.39
2019-02-20T07:18:45.135Z,99858.17
2019-02-20T07:22:17.219Z,99860.13
2019-02-20T07:25:42.823Z,99862.19
2019-02-20T07:29:26.621Z,99867.50
2019-02-20T07:32:02.444Z,99869.23
2019-02-20T07:34:39.630Z,99872.55
2019-02-20T07:37:14.649Z,99886.98
2019-02-20T07:39:50.891Z,99890.33
2019-02-20T07:42:26.071Z,99888.21
2019-02-20T07:45:01.002Z,99896.47
2019-02-20T07:47:35.825Z,99901.34
2019-02-20T07:50:12.580Z,99899.70
2019-02-20T07:52:47.449Z,99918.94
2019-02-20T07:55:23.602Z,99919.94
2019-02-20T07:57:59.614Z,99911.11
2019-02-20T08:00:35.597Z,99923.27
2019-02-20T08:03:09.867Z,99926.14
2019-02-20T08:05:45.157Z,99923.04
2019-02-20T08:08:19.514Z,99927.34
2019-02-20T08:10:54.323Z,99934.81
2019-02-20T08:13:39.047Z,99929.58
2019-02-20T08:16:08.761Z,99931.03
2019-02-20T08:18:43.056Z,99938.05
2019-02-20T08:21:19.083Z,99938.38
2019-02-20T08:23:55.312Z,99932.00
2019-02-20T08:26:30.668Z,99933.78
2019-02-20T08:29:07.186Z,99939.37
2019-02-20T08:31:42.772Z,99945.02
2019-02-20T08:34:18.839Z,99941.46
2019-02-20T08:36:55.723Z,99942.36
2019-02-20T08:39:31.886Z,99952.16
2019-02-20T08:42:06.908Z,99947.70
2019-02-20T08:44:40.711Z,99953.19
2019-02-20T08:47:15.593Z,99958.80
2019-02-20T08:49:51.023Z,99953.19
2019-02-20T08:52:26.335Z,99955.13
2019-02-20T08:55:01.311Z,99963.25
2019-02-20T08:57:36.007Z,99963.83
2019-02-20T09:00:13.261Z,99962.56
2019-02-20T09:02:47.590Z,99972.02
2019-02-20T09:05:23.982Z,99972.06
2019-02-20T09:07:57.787Z,99970.53
2019-02-20T09:10:33.210Z,99973.20
2019-02-20T09:13:09.322Z,99982.30
2019-02-20T09:15:44.311Z,99982.45
2019-02-20T09:18:18.709Z,99980.38
2019-02-20T09:20:54.599Z,99985.52
2019-02-20T09:23:29.057Z,99984.95
2019-02-20T09:26:05.465Z,99980.48
2019-02-20T09:28:58.150Z,99978.66
2019-02-20T09:31:33.835Z,100001.83
2019-02-20T09:34:11.407Z,99984.31
2019-02-20T09:36:50.274Z,99989.03
2019-02-20T09:39:49.806Z,100000.11
2019-02-20T09:42:25.474Z,99998.02
2019-02-20T09:45:00.506Z,99994.34
2019-02-20T09:47:35.866Z,100002.69
2019-02-20T09:50:11.210Z,100000.58
2019-02-20T09:52:51.889Z,100001.68
2019-02-20T09:55:23.328Z,100004.78
2019-02-20T09:57:59.168Z,99986.13
2019-02-20T10:00:35.284Z,99991.27
2019-02-20T10:03:09.913Z,99990.47
2019-02-20T10:05:44.856Z,99978.63
2019-02-20T10:08:19.429Z,99980.71
2019-02-20T10:10:54.616Z,99982.69
2019-02-20T10:13:29.555Z,99983.93
2019-02-20T10:16:04.030Z,99987.80
2019-02-20T10:18:38.834Z,99988.30
2019-02-20T10:21:14.048Z,99978.00
2019-02-20T10:23:49.998Z,99978.36
2019-02-20T10:26:24.440Z,99974.69
2019-02-20T10:28:58.398Z,99982.62
2019-02-20T10:31:33.085Z,99986.72
2019-02-20T10:34:06.316Z,99976.47
2019-02-20T10:36:39.623Z,99994.77
2019-02-20T10:39:12.851Z,99996.64
2019-02-20T10:41:46.794Z,99984.95
2019-02-20T10:44:23.882Z,99984.59
2019-02-20T10:46:58.047Z,99985.70
2019-02-20T10:49:32.137Z,99985.68
2019-02-20T10:52:06.226Z,99996.95
2019-02-20T10:54:39.090Z,100001.70
2019-02-20T10:57:12.967Z,99987.72
2019-02-20T10:59:46.510Z,99997.18
2019-02-20T11:02:21.015Z,99999.84
2019-02-20T11:04:55.396Z,99990.38
2019-02-20T11:07:28.803Z,99992.46
2019-02-20T11:10:02.870Z,99987.13
2019-02-20T11:12:36.687Z,99987.14
2019-02-20T11:15:09.263Z,99990.01
2019-02-20T11:17:42.244Z,99987.48
2019-02-20T11:20:15.419Z,99982.29
2019-02-20T11:22:49.681Z,99998.06
2019-02-20T11:25:22.979Z,99993.37
2019-02-20T11:27:56.293Z,99995.47
2019-02-20T11:30:28.629Z,99993.20
2019-02-20T11:33:03.366Z,99995.55
2019-02-20T11:35:37.137Z,99995.80
2019-02-20T11:38:10.877Z,99988.30
2019-02-20T11:40:44.574Z,99990.26
2019-02-20T11:43:18.516Z,99992.92
2019-02-20T11:45:52.271Z,99994.73
2019-02-20T11:48:26.838Z,99986.06
2019-02-20T11:51:01.097Z,99982.06
2019-02-20T11:53:37.392Z,99993.43
2019-02-20T11:56:12.325Z,100007.25
2019-02-20T11:58:49.909Z,100004.25
2019-02-20T12:01:24.615Z,100002.37
2019-02-20T12:04:00.029Z,100020.94
2019-02-20T12:06:33.911Z,100016.52
2019-02-20T12:09:11.446Z,100016.31
2019-02-20T12:11:47.114Z,100019.32
2019-02-20T12:14:24.698Z,100008.41
2019-02-20T12:16:59.113Z,100014.10
2019-02-20T12:19:36.714Z,100008.27
2019-02-20T12:22:11.084Z,100024.00
2019-02-20T12:24:46.475Z,100021.78
2019-02-20T12:27:21.386Z,100020.02
2019-02-20T12:29:55.990Z,100025.09
2019-02-20T12:32:32.399Z,100032.88
2019-02-20T12:35:07.162Z,100024.56
2019-02-20T12:37:43.372Z,100028.86
2019-02-20T12:40:18.545Z,100025.84
2019-02-20T12:42:53.679Z,100024.47
2019-02-20T12:45:30.368Z,100026.40
2019-02-20T12:48:05.928Z,100030.59
2019-02-20T12:50:41.283Z,100032.05
2019-02-20T12:53:16.835Z,100029.43
2019-02-20T12:55:52.718Z,100028.40
2019-02-20T12:58:27.271Z,100034.03
2019-02-20T13:01:02.827Z,100022.88
2019-02-20T13:03:39.171Z,100033.49
2019-02-20T13:06:14.643Z,100024.47
2019-02-20T13:08:49.955Z,100030.48
2019-02-20T13:11:25.588Z,100034.38
2019-02-20T13:14:00.579Z,100035.94
2019-02-20T13:16:37.797Z,100030.76
2019-02-20T13:19:11.661Z,100025.02
2019-02-20T13:21:46.775Z,100032.38
2019-02-20T13:24:22.416Z,100028.58
2019-02-20T13:26:57.243Z,100030.06
2019-02-20T13:29:31.913Z,100032.23
2019-02-20T13:32:05.082Z,100033.92
2019-02-20T13:34:39.448Z,100030.61
2019-02-20T13:37:14.303Z,100034.22
2019-02-20T13:39:48.487Z,100033.46
2019-02-20T13:42:23.763Z,100052.15
2019-02-20T13:44:59.320Z,100046.50
2019-02-20T13:47:37.961Z,100045.93
2019-02-20T13:50:21.556Z,100049.14
2019-02-20T13:52:56.015Z,100057.44
2019-02-20T13:55:34.446Z,100060.38
2019-02-20T13:58:07.932Z,100065.34
2019-02-20T14:00:43.378Z,100064.58
2019-02-20T14:03:18.060Z,100067.56
2019-02-20T14:05:52.611Z,100069.80
2019-02-20T14:08:27.647Z,100070.87
2019-02-20T14:11:02.509Z,100074.65
2019-02-20T14:13:37.103Z,100084.00
2019-02-20T14:16:12.503Z,100076.46
2019-02-20T14:18:47.575Z,100087.34
2019-02-20T14:21:23.561Z,100085.25
2019-02-20T14:23:58.173Z,100078.56
2019-02-20T14:26:33.085Z,100087.13
2019-02-20T14:29:07.991Z,100078.52
2019-02-20T14:31:46.062Z,100081.97
2019-02-20T14:34:21.704Z,100073.45
2019-02-20T14:36:56.312Z,100084.45
2019-02-20T14:39:30.843Z,100087.25
2019-02-20T14:42:08.069Z,100091.55
2019-02-20T14:44:43.011Z,100075.10
2019-02-20T14:47:17.987Z,100079.75
2019-02-20T14:49:52.284Z,100086.41
2019-02-20T14:52:26.783Z,100081.28
2019-02-20T14:55:00.922Z,100083.27
2019-02-20T14:57:35.823Z,100078.15
2019-02-20T15:00:10.896Z,100091.87
2019-02-20T15:02:45.305Z,100081.45
2019-02-20T15:05:20.226Z,100072.59
2019-02-20T15:07:54.637Z,100074.79
2019-02-20T15:10:30.987Z,100070.47
2019-02-20T15:13:07.789Z,100081.57
2019-02-20T15:15:42.168Z,100083.27
2019-02-20T15:18:17.204Z,100075.89
2019-02-20T15:20:53.681Z,100075.05
2019-02-20T15:23:29.001Z,100078.53
2019-02-20T15:26:05.047Z,100077.53
2019-02-20T15:28:38.519Z,100085.58
2019-02-20T15:31:14.553Z,100084.64
2019-02-20T15:33:48.621Z,100088.13
2019-02-20T15:36:26.595Z,100093.38
2019-02-20T15:39:03.104Z,100091.84
2019-02-20T15:41:38.565Z,100097.19
2019-02-20T15:44:13.921Z,100096.70
2019-02-20T15:46:48.696Z,100094.16
2019-02-20T15:49:23.168Z,100092.55
2019-02-20T15:51:58.909Z,100088.88
2019-02-20T15:54:34.468Z,100100.47
2019-02-20T15:57:10.642Z,100096.77
2019-02-20T15:59:45.002Z,100096.34
2019-02-20T16:02:19.985Z,100101.02
2019-02-20T16:04:56.489Z,100103.58
2019-02-20T16:07:32.224Z,100106.86
2019-02-20T16:10:10.625Z,100102.16
2019-02-20T16:12:46.551Z,100102.09
2019-02-20T16:15:20.963Z,100105.27
2019-02-20T16:17:56.528Z,100107.56
2019-02-20T16:20:30.744Z,100115.44
2019-02-20T16:23:07.094Z,100120.00
2019-02-20T16:25:44.941Z,100128.01
2019-02-20T16:28:21.513Z,100133.27
2019-02-20T16:30:58.359Z,100129.07
2019-02-20T16:33:43.180Z,100142.02
2019-02-20T16:36:17.659Z,100139.03
2019-02-20T16:38:54.123Z,100134.03
2019-02-20T16:41:30.151Z,100142.17
2019-02-20T16:44:05.231Z,100142.67
2019-02-20T16:46:40.453Z,100151.05
2019-02-20T16:49:14.807Z,100150.91
2019-02-20T16:51:53.359Z,100153.03
2019-02-20T16:54:29.321Z,100151.16
2019-02-20T16:57:04.173Z,100154.56
2019-02-20T16:59:38.816Z,100159.19
2019-02-20T17:02:13.829Z,100158.15
2019-02-20T17:04:48.349Z,100154.42
2019-02-20T17:07:24.245Z,100159.67
2019-02-20T17:09:58.185Z,100159.90
2019-02-20T17:12:33.740Z,100155.06
2019-02-20T17:15:09.652Z,100155.69
2019-02-20T17:17:45.543Z,100158.66
2019-02-20T17:20:22.137Z,100152.77
2019-02-20T17:22:56.088Z,100153.66
2019-02-20T17:25:30.868Z,100161.55
2019-02-20T17:28:06.252Z,100156.81
2019-02-20T17:30:44.634Z,100164.43
2019-02-20T17:33:19.570Z,100166.43
2019-02-20T17:35:55.516Z,100160.05
2019-02-20T17:38:30.423Z,100164.52
2019-02-20T17:41:05.741Z,100161.23
2019-02-20T17:43:43.499Z,100168.00
2019-02-20T17:46:19.002Z,100173.61
2019-02-20T17:48:53.875Z,100175.94
2019-02-20T17:51:28.252Z,100169.05
2019-02-20T17:54:03.322Z,100171.52
2019-02-20T17:56:38.100Z,100174.28
2019-02-20T17:59:21.596Z,100179.05
2019-02-20T18:01:59.432Z,100182.87
2019-02-20T18:04:36.063Z,100185.00
2019-02-20T18:07:12.260Z,100185.00
2019-02-20T18:09:47.783Z,100185.94
2019-02-20T18:12:27.068Z,100191.77
2019-02-20T18:15:22.733Z,100191.29
2019-02-20T18:17:55.841Z,100190.63
2019-02-20T18:20:29.944Z,100185.35
2019-02-20T18:23:04.525Z,100191.30
2019-02-20T18:25:39.923Z,100200.34
2019-02-20T18:28:13.370Z,100202.02
2019-02-20T18:30:56.689Z,100205.73
2019-02-20T18:33:30.302Z,100205.45
2019-02-20T18:36:03.163Z,100205.67
2019-02-20T18:38:37.765Z,100209.91
2019-02-20T18:41:10.112Z,100217.06
2019-02-20T18:43:44.335Z,100216.33
2019-02-20T18:46:17.863Z,100224.05
2019-02-20T18:48:51.041Z,100225.01
2019-02-20T18:51:24.370Z,100223.73
2019-02-20T18:53:58.914Z,100226.88
2019-02-20T18:56:34.177Z,100224.59
2019-02-20T18:59:09.028Z,100231.89
2019-02-20T19:01:42.360Z,100228.66
2019-02-20T19:04:15.397Z,100231.20
2019-02-20T19:09:47.518Z,100239.38
2019-02-20T19:13:33.128Z,100234.83
2019-02-20T19:17:17.263Z,100238.13
2019-02-20T19:20:56.055Z,100238.09
2019-02-20T19:24:36.942Z,100239.61
2019-02-20T19:27:47.841Z,100247.75
2019-02-20T19:31:09.684Z,100249.73
2019-02-20T19:34:40.383Z,100258.01
2019-02-20T19:38:29.565Z,100261.05
2019-02-20T19:42:20.922Z,100259.73
2019-02-20T19:46:00.449Z,100263.02
2019-02-20T19:49:34.685Z,100259.75
2019-02-20T19:52:45.146Z,100264.52
2019-02-20T19:55:55.712Z,100266.59
2019-02-20T19:59:23.251Z,100269.76
2019-02-20T20:02:58.944Z,100266.66
2019-02-20T20:06:28.514Z,100272.38
2019-02-20T20:09:39.650Z,100279.05
2019-02-20T20:13:03.209Z,100279.11
2019-02-20T20:16:28.046Z,100276.33
2019-02-20T20:20:00.427Z,100274.14
2019-02-20T20:23:27.453Z,100275.64
2019-02-20T20:26:57.549Z,100280.25
2019-02-20T20:30:32.039Z,100282.47
2019-02-20T20:33:57.734Z,100281.02
2019-02-20T20:37:19.466Z,100281.14
2019-02-20T20:40:50.910Z,100275.31
2019-02-20T20:44:28.293Z,100273.55
2019-02-20T20:47:58.235Z,100273.21
2019-02-20T20:51:19.246Z,100279.82
2019-02-20T20:54:14.259Z,100277.53
2019-02-20T20:57:40.518Z,100274.47
2019-02-20T21:01:02.712Z,100277.36
2019-02-20T21:03:38.117Z,100271.34
2019-02-20T21:07:00.410Z,100278.30
2019-02-20T21:10:46.512Z,100274.39
2019-02-20T21:14:22.747Z,100278.61
2019-02-20T21:18:07.967Z,100277.48
2019-02-20T21:21:30.814Z,100280.00
2019-02-20T21:25:17.146Z,100283.38
2019-02-20T21:28:56.576Z,100283.12
2019-02-20T21:32:10.890Z,100282.95
2019-02-20T21:35:31.293Z,100278.05
2019-02-20T21:39:07.235Z,100281.97
2019-02-20T21:42:20.167Z,100279.13
2019-02-20T21:45:15.686Z,100285.03
2019-02-20T21:48:37.041Z,100284.86
2019-02-20T21:52:15.433Z,100282.03
2019-02-20T21:55:49.235Z,100286.45
2019-02-20T21:59:38.689Z,100288.13
2019-02-20T22:03:00.459Z,100280.44
2019-02-20T22:05:54.749Z,100278.32
2019-02-20T22:09:12.058Z,100280.94
2019-02-20T22:12:31.043Z,100282.13
2019-02-20T22:16:08.689Z,100281.09
2019-02-20T22:19:39.820Z,100285.70
2019-02-20T22:22:56.101Z,100292.45
2019-02-20T22:26:25.005Z,100289.53
2019-02-20T22:30:01.238Z,100291.80
2019-02-20T22:33:27.919Z,100290.38
2019-02-20T22:37:02.492Z,100285.22
2019-02-20T22:40:23.741Z,100296.53
2019-02-20T22:44:18.681Z,100293.97
2019-02-20T22:47:57.130Z,100296.58
2019-02-20T22:51:36.786Z,100307.15
2019-02-20T22:55:15.644Z,100302.03
2019-02-20T22:58:53.991Z,100304.98
2019-02-20T23:01:59.374Z,100303.71
2019-02-20T23:05:06.855Z,100306.69
2019-02-20T23:08:04.195Z,100314.17
2019-02-20T23:11:42.684Z,100308.69
2019-02-20T23:15:04.044Z,100308.01
2019-02-20T23:17:38.329Z,100309.03
2019-02-20T23:20:13.648Z,100304.50
2019-02-20T23:22:47.887Z,100311.94
2019-02-20T23:25:22.044Z,100308.69
2019-02-20T23:27:57.081Z,100307.41
2019-02-20T23:30:32.065Z,100314.86
2019-02-20T23:33:07.256Z,100310.83
2019-02-20T23:35:42.187Z,100315.94
2019-02-20T23:38:17.497Z,100312.44
2019-02-20T23:40:53.370Z,100316.05
2019-02-20T23:43:27.894Z,100313.62
2019-02-20T23:46:02.859Z,100314.26
2019-02-20T23:48:37.246Z,100316.28
2019-02-20T23:51:11.672Z,100315.24
2019-02-20T23:53:47.898Z,100309.42
2019-02-20T23:56:22.340Z,100311.48
2019-02-20T23:58:56.721Z,100308.88
